Nearby METAR Reports


Data Updates Approximately Every Four Hours

METAR is the international standard code format for hourly surface weather observations which is analogous to the SA coding currently used in the US. The acronym roughly translates from French as Aviation Routine Weather Report. SPECI is merely the code name given to METAR formatted products which are issued on a special non-routine basis as dictated by changing meteorological conditions. The SPECI acronym roughly translates as Aviation Selected Special Weather Report.

KSLH - Cheboygan, Michigan, USA
Distance from station: W 9mi, 14km
Updated: 10/14/2019 2:37am
Mostly cloudy
Mostly cloudy
 Wind from SSW
Wind: SSW 3 mph , 6 km/h
Temperature: 36°F , 2°C
Dew Point: 36°F , 2°C
Humidity: 100%
Barometer: 29.74 inHg , 1007.1 hPa
Clouds: Mostly cloudy
Visibility: 10 miles , 16 km
Cloud details: Partly cloudy 3000 ft
Partly cloudy 4800 ft
Mostly cloudy 5000 ft
2019/10/14 06:37 KSLH 140637Z AUTO 21003KT 10SM SCT030 SCT048 BKN050 02/02 A2974 RMK AO2 T00200016
KMCD - Mackinac Island, Michigan, USA
Distance from station: NW 19mi, 31km
Updated: 10/14/2019 2:35am
Partly cloudy
Partly cloudy
 Wind from W
Wind: W 13 mph , 20 km/h
Temperature: 41°F , 5°C
Wind Chill: 34°F , 1°C
Dew Point: 36°F , 2°C
Humidity: 81%
Barometer: 29.74 inHg , 1007.1 hPa
Clouds: Partly cloudy
Visibility: 10 miles , 16 km
Cloud details: Partly cloudy 2700 ft
Partly cloudy 3800 ft
Partly cloudy 4700 ft
2019/10/14 06:35 KMCD 140635Z AUTO 28011KT 10SM SCT027 SCT038 SCT047 05/02 A2974 RMK AO2 T00520019
 
KPLN - Pellston, Michigan, USA
Distance from station: WSW 24mi, 38km
Updated: 10/14/2019 1:54am
Clear
Clear
 Wind from calm
Wind: Calm
Temperature: 30°F , -1°C
Dew Point: 30°F , -1°C
Humidity: 100%
Barometer: 29.75 inHg , 1007.5 hPa
Clouds: Clear
Visibility: 10 miles , 16 km
2019/10/14 05:54 KPLN 140554Z AUTO 00000KT 10SM CLR M01/M01 A2975 RMK AO2 SLP079 60034 I1000 I6000 T10061011 10039 21006 55002
KPZQ - Rogers City, Michigan, USA
Distance from station: SE 31mi, 50km
Updated: 10/14/2019 2:36am
Overcast
Overcast
 Wind from SW
Wind: SW 13 mph , 20 km/h, Gust: 20 mph , 31 km/h
Temperature: 37°F , 3°C
Wind Chill: 29°F , -2°C
Dew Point: 36°F , 2°C
Humidity: 93%
Barometer: 29.77 inHg , 1008.1 hPa
Clouds: Overcast
Visibility: 10 miles , 16 km
Cloud details: Partly cloudy 1800 ft
Mostly cloudy 5000 ft
Overcast 9000 ft
2019/10/14 06:36 KPZQ 140636Z AUTO 22011G17KT 10SM UP SCT018 BKN050 OVC090 03/02 A2977 RMK AO2 T00260015
 
KMGN - Harbor Springs, Michigan, USA
Distance from station: WSW 32mi, 52km
Updated: 10/14/2019 2:35am
Overcast
Overcast
 Wind from WNW
Wind: WNW 10 mph , 17 km/h
Temperature: 43°F , 6°C
Wind Chill: 37°F , 3°C
Dew Point: 34°F , 1°C
Humidity: 71%
Barometer: 29.75 inHg , 1007.5 hPa
Clouds: Overcast
Visibility: 10 miles , 16 km
Cloud details: Partly cloudy 3400 ft
Mostly cloudy 4200 ft
Overcast 6000 ft
2019/10/14 06:35 KMGN 140635Z AUTO 30009KT 10SM SCT034 BKN042 OVC060 06/01 A2975 RMK AO2 T00610017
KDRM - Drummond Is, Michigan, USA
Distance from station: NE 36mi, 59km
Updated: 10/14/2019 2:36am
Overcast
Overcast
 Wind from calm
Wind: Calm
Temperature: 41°F , 5°C
Dew Point: 37°F , 3°C
Humidity: 87%
Barometer: 29.73 inHg , 1006.8 hPa
Clouds: Overcast
Visibility: 10 miles , 16 km
Cloud details: Overcast 6000 ft
2019/10/14 06:36 KDRM 140636Z AUTO 00000KT 10SM OVC060 05/03 A2973 RMK AO2 T00500025
 
KCIU - Chippewa Intl, Michigan, USA
Distance from station: N 41mi, 66km
Updated: 10/14/2019 1:56am
Partly cloudy
Partly cloudy
 Wind from WSW
Wind: WSW 5 mph , 7 km/h
Temperature: 32°F , 0°C
Wind Chill: 27°F , -3°C
Dew Point: 30°F , -1°C
Humidity: 93%
Barometer: 29.72 inHg , 1006.4 hPa
Clouds: Partly cloudy
Visibility: 10 miles , 16 km
Cloud details: Partly cloudy 1200 ft
2019/10/14 05:56 KCIU 140556Z AUTO 24004KT 10SM SCT012 00/M01 A2972 RMK AO2 SLP072 T00001006 10011 20000 53006 FZRANO
KGLR - Gaylord, Michigan, USA
Distance from station: SSW 48mi, 77km
Updated: 10/14/2019 2:44am
Partly cloudy
Partly cloudy
 Wind from WSW
Wind: WSW 14 mph , 22 km/h
Temperature: 36°F , 2°C
Wind Chill: 27°F , -3°C
Dew Point: 34°F , 1°C
Humidity: 93%
Barometer: 29.77 inHg , 1008.1 hPa
Clouds: Partly cloudy
Visibility: 10 miles , 16 km
Cloud details: Few Clouds 1100 ft
Partly cloudy 1900 ft
Partly cloudy 7000 ft
2019/10/14 06:44 KGLR 140644Z AUTO 24012KT 10SM FEW011 SCT019 SCT070 02/01 A2977 RMK AO2 RAE20 P0000 T00170006
 
KCVX - Charlevoix, Michigan, USA
Distance from station: WSW 52mi, 83km
Updated: 10/14/2019 2:36am
Mostly cloudy
Mostly cloudy
 Wind from WSW
Wind: WSW 17 mph , 28 km/h, Gust: 24 mph , 39 km/h
Temperature: 45°F , 7°C
Wind Chill: 38°F , 3°C
Dew Point: 34°F , 1°C
Humidity: 66%
Barometer: 29.79 inHg , 1008.8 hPa
Clouds: Mostly cloudy
Visibility: 10 miles , 16 km
Cloud details: Partly cloudy 3200 ft
Partly cloudy 4200 ft
Mostly cloudy 6000 ft
2019/10/14 06:36 KCVX 140636Z AUTO 25015G21KT 10SM SCT032 SCT042 BKN060 07/01 A2979 RMK AO2 T00710012
KANJ - Sault Ste Marie, Michigan, USA
Distance from station: N 56mi, 89km
Updated: 10/14/2019 2:10am
Overcast
Overcast
 Wind from SW
Wind: SW 12 mph , 19 km/h
Temperature: 37°F , 3°C
Wind Chill: 29°F , -2°C
Dew Point: 34°F , 1°C
Humidity: 87%
Barometer: 29.70 inHg , 1005.8 hPa
Clouds: Overcast
Visibility: 10 miles , 16 km
Cloud details: Mostly cloudy 1300 ft
Overcast 1800 ft
2019/10/14 06:10 KANJ 140610Z AUTO 23010KT 10SM BKN013 OVC018 03/01 A2970 RMK AO2 T00280011
 
KAPN - Alpena, Michigan, USA
Distance from station: SE 56mi, 89km
Updated: 10/14/2019 1:54am
Few Clouds
Few Clouds
 Wind from WSW
Wind: WSW 3 mph , 6 km/h
Temperature: 37°F , 3°C
Dew Point: 34°F , 1°C
Humidity: 87%
Barometer: 29.78 inHg , 1008.5 hPa
Clouds: Few Clouds
Visibility: 10 miles , 16 km
Cloud details: Few Clouds 4000 ft
Few Clouds 4700 ft
2019/10/14 05:54 KAPN 140554Z AUTO 25003KT 10SM FEW040 FEW047 03/01 A2978 RMK AO2 SLP092 T00280011 10044 20022 53003
CYAM - Sault Ste Marie, Ontario, Canada
Distance from station: N 56mi, 90km
Updated: 10/14/2019 2:43am
Light rain, Overcast
Light rain, Overcast
 Wind from W
Wind: W 13 mph , 20 km/h
Temperature: 37°F , 3°C
Wind Chill: 29°F , -2°C
Dew Point: 36°F , 2°C
Humidity: 93%
Barometer: 29.70 inHg , 1005.8 hPa
Summary: Light rain
Clouds: Overcast
Visibility: 10 miles , 16 km
Cloud details: Partly cloudy 800 ft
Mostly cloudy 1200 ft
Overcast 2000 ft
2019/10/14 06:43 CYAM 140643Z 26011KT 10SM -RA SCT008 BKN012 OVC020 03/02 A2970 RMK ST3NS4SC1 CIG VRB 9-15 SLP067
 
KSJX - Beaver Island, Michigan, USA
Distance from station: W 60mi, 96km
Updated: 10/14/2019 2:38am
Mostly cloudy
Mostly cloudy
 Wind from W
Wind: W 13 mph , 20 km/h, Gust: 18 mph , 30 km/h
Temperature: 41°F , 5°C
Wind Chill: 34°F , 1°C
Dew Point: 34°F , 1°C
Humidity: 76%
Barometer: 29.76 inHg , 1007.8 hPa
Clouds: Mostly cloudy
Visibility: 10 miles , 16 km
Cloud details: Partly cloudy 2000 ft
Partly cloudy 3700 ft
Mostly cloudy 4400 ft
2019/10/14 06:38 KSJX 140638Z AUTO 28011G16KT 10SM SCT020 SCT037 BKN044 05/01 A2976 RMK AO2 T00520011
KACB - Bellaire, Michigan, USA
Distance from station: SW 63mi, 102km
Updated: 10/14/2019 2:35am
Overcast
Overcast
 Wind from WSW
Wind: WSW 8 mph , 13 km/h
Temperature: 43°F , 6°C
Wind Chill: 38°F , 3°C
Dew Point: 37°F , 3°C
Humidity: 81%
Barometer: 29.80 inHg , 1009.1 hPa
Clouds: Overcast
Visibility: 10 miles , 16 km
Cloud details: Partly cloudy 1700 ft
Mostly cloudy 4400 ft
Overcast 5000 ft
2019/10/14 06:35 KACB 140635Z AUTO 24007KT 10SM SCT017 BKN044 OVC050 06/03 A2980 RMK AO2 T00550031
 
CWNL - Great Duck Island, Ontario, Canada
Distance from station: E 66mi, 106km
Updated: 10/14/2019 2:00am

 Wind from W
Wind: W 14 mph , 22 km/h, Gust: 23 mph , 37 km/h
Temperature: 45°F , 7°C
Wind Chill: 39°F , 4°C
Dew Point: 39°F , 4°C
Humidity: 81%
2019/10/14 06:00 CWNL 140600Z AUTO 28012G20KT 07/04 RMK AO1 PK WND 27024/0531 SLP072 T00650042 55002
KERY - Newberry, Michigan, USA
Distance from station: NW 69mi, 112km
Updated: 10/14/2019 2:37am
Overcast
Overcast
 Wind from WSW
Wind: WSW 10 mph , 17 km/h, Gust: 16 mph , 26 km/h
Temperature: 37°F , 3°C
Wind Chill: 30°F , -1°C
Dew Point: 34°F , 1°C
Humidity: 87%
Barometer: 29.73 inHg , 1006.8 hPa
Clouds: Overcast
Visibility: 10 miles , 16 km
Cloud details: Overcast 700 ft
2019/10/14 06:37 KERY 140637Z AUTO 25009G14KT 10SM OVC007 03/01 A2973 RMK AO2 T00250013
 
KGOV - Grayling Af, Michigan, USA
Distance from station: SSW 70mi, 113km
Updated: 10/14/2019 1:58am
Overcast
Overcast
 Wind from WSW
Wind: WSW 10 mph , 17 km/h
Temperature: 36°F , 2°C
Wind Chill: 29°F , -2°C
Dew Point: 34°F , 1°C
Humidity: 93%
Barometer: 29.78 inHg , 1008.5 hPa
Clouds: Overcast
Visibility: 10 miles , 16 km
Cloud details: Overcast 20000 ft
2019/10/14 05:58 KGOV 140558Z AUTO 25009KT 10SM OVC200 02/01 A2978 RMK AO2 SLP100 60000 T00190014 10029 20015 55000 $